createdAt,value
2023-02-01T00:02:14.713Z,2.15
2023-02-01T00:04:41.496Z,2.50
2023-02-01T00:07:08.244Z,2.00
2023-02-01T00:09:35.062Z,2.47
2023-02-01T00:12:03.743Z,2.25
2023-02-01T00:14:30.694Z,2.50
2023-02-01T00:16:57.622Z,2.47
2023-02-01T00:19:24.456Z,2.65
2023-02-01T00:21:51.190Z,2.60
2023-02-01T00:24:17.942Z,2.60
2023-02-01T00:26:46.554Z,2.47
2023-02-01T00:29:19.668Z,2.97
2023-02-01T00:31:46.932Z,2.22
2023-02-01T00:34:16.448Z,2.90
2023-02-01T00:36:44.509Z,2.60
2023-02-01T00:39:11.969Z,2.53
2023-02-01T00:41:39.263Z,2.92
2023-02-01T00:44:06.081Z,3.35
2023-02-01T00:46:33.106Z,2.55
2023-02-01T00:48:59.943Z,2.90
2023-02-01T00:51:28.981Z,2.55
2023-02-01T00:53:56.320Z,2.55
2023-02-01T00:56:23.461Z,2.40
2023-02-01T00:58:50.292Z,2.65
2023-02-01T01:01:25.593Z,2.55
2023-02-01T01:03:57.942Z,2.80
2023-02-01T01:06:28.088Z,2.17
2023-02-01T01:08:56.300Z,2.47
2023-02-01T01:11:26.462Z,2.88
2023-02-01T01:13:54.861Z,2.88
2023-02-01T01:16:22.896Z,3.17
2023-02-01T01:18:50.383Z,2.60
2023-02-01T01:21:18.095Z,2.92
2023-02-01T01:23:46.480Z,2.33
2023-02-01T01:26:19.464Z,2.30
2023-02-01T01:28:46.698Z,2.63
2023-02-01T01:31:15.410Z,2.35
2023-02-01T01:33:42.418Z,2.92
2023-02-01T01:36:13.600Z,3.25
2023-02-01T01:38:41.399Z,2.80
2023-02-01T01:41:10.250Z,2.22
2023-02-01T01:44:03.310Z,3.10
2023-02-01T01:46:36.560Z,3.00
2023-02-01T01:49:17.906Z,3.13
2023-02-01T01:51:53.066Z,3.13
2023-02-01T01:54:37.659Z,2.72
2023-02-01T01:57:14.198Z,3.13
2023-02-01T01:59:44.067Z,3.45
2023-02-01T02:02:11.546Z,3.50
2023-02-01T02:04:38.782Z,4.10
2023-02-01T02:07:11.260Z,3.47
2023-02-01T02:09:39.685Z,3.22
2023-02-01T02:12:06.611Z,3.08
2023-02-01T02:14:35.101Z,3.20
2023-02-01T02:17:37.243Z,2.92
2023-02-01T02:20:29.440Z,3.33
2023-02-01T02:23:24.381Z,2.75
2023-02-01T02:26:19.284Z,3.05
2023-02-01T02:29:14.336Z,2.95
2023-02-01T02:31:59.159Z,2.90
2023-02-01T02:34:33.696Z,2.33
2023-02-01T02:37:25.850Z,2.63
2023-02-01T02:40:07.748Z,3.05
2023-02-01T02:43:14.692Z,2.78
2023-02-01T02:46:21.622Z,2.58
2023-02-01T02:48:56.623Z,2.22
2023-02-01T02:52:09.160Z,2.90
2023-02-01T02:54:46.941Z,2.20
2023-02-01T02:57:52.159Z,2.60
2023-02-01T03:00:40.624Z,3.17
2023-02-01T03:03:26.972Z,3.17
2023-02-01T03:05:54.063Z,2.58
2023-02-01T03:08:26.573Z,2.55
2023-02-01T03:11:06.824Z,2.58
2023-02-01T03:13:54.071Z,2.30
2023-02-01T03:16:29.471Z,2.72
2023-02-01T03:19:04.949Z,2.20
2023-02-01T03:21:46.057Z,2.50
2023-02-01T03:24:36.820Z,2.28
2023-02-01T03:27:12.652Z,2.65
2023-02-01T03:29:49.015Z,2.42
2023-02-01T03:32:16.092Z,2.20
2023-02-01T03:34:43.553Z,2.42
2023-02-01T03:37:14.052Z,2.30
2023-02-01T03:40:04.334Z,2.67
2023-02-01T03:42:46.875Z,2.75
2023-02-01T03:45:40.138Z,2.20
2023-02-01T03:48:08.151Z,1.88
2023-02-01T03:50:39.423Z,1.90
2023-02-01T03:53:15.869Z,1.92
2023-02-01T03:55:43.805Z,2.05
2023-02-01T03:58:12.628Z,1.80
2023-02-01T04:00:39.484Z,1.50
2023-02-01T04:03:08.023Z,1.85
2023-02-01T04:05:35.507Z,1.50
2023-02-01T04:08:02.547Z,1.42
2023-02-01T04:10:29.534Z,1.40
2023-02-01T04:12:56.269Z,1.25
2023-02-01T04:15:23.050Z,1.20
2023-02-01T04:17:49.851Z,1.10
2023-02-01T04:20:16.953Z,1.35
2023-02-01T04:22:44.215Z,1.20
2023-02-01T04:25:11.820Z,1.73
2023-02-01T04:30:05.995Z,1.27
2023-02-01T04:32:32.798Z,1.05
2023-02-01T04:34:59.538Z,1.00
2023-02-01T04:37:26.289Z,1.15
2023-02-01T04:39:53.064Z,0.90
2023-02-01T04:42:19.883Z,0.60
2023-02-01T04:44:46.797Z,0.77
2023-02-01T04:47:13.754Z,0.70
2023-02-01T04:49:40.574Z,0.63
2023-02-01T04:52:07.377Z,1.00
2023-02-01T04:54:34.507Z,0.77
2023-02-01T04:57:01.771Z,0.80
2023-02-01T04:59:29.888Z,0.80
2023-02-01T05:01:56.754Z,0.93
2023-02-01T05:04:23.547Z,0.80
2023-02-01T05:06:50.667Z,0.75
2023-02-01T05:09:17.535Z,0.80
2023-02-01T05:12:02.815Z,0.80
2023-02-01T05:14:29.785Z,0.80
2023-02-01T05:16:56.640Z,0.90
2023-02-01T05:19:23.431Z,0.90
2023-02-01T05:21:50.205Z,0.90
2023-02-01T05:24:22.824Z,0.80
2023-02-01T05:26:50.515Z,1.00
2023-02-01T05:29:18.573Z,1.00
2023-02-01T05:31:47.076Z,1.27
2023-02-01T05:34:14.108Z,1.10
2023-02-01T05:36:41.208Z,1.60
2023-02-01T05:39:08.059Z,1.60
2023-02-01T05:41:34.856Z,2.03
2023-02-01T05:44:01.754Z,2.10
2023-02-01T05:46:28.739Z,2.03
2023-02-01T05:48:55.507Z,2.20
2023-02-01T05:51:22.349Z,1.92
2023-02-01T05:53:49.096Z,2.53
2023-02-01T05:56:15.956Z,2.30
2023-02-01T05:58:42.720Z,2.05
2023-02-01T06:01:09.582Z,2.60
2023-02-01T06:03:36.760Z,1.90
2023-02-01T06:06:03.768Z,2.33
2023-02-01T06:08:30.836Z,2.15
2023-02-01T06:11:02.366Z,2.13
2023-02-01T06:13:29.149Z,1.95
2023-02-01T06:15:56.905Z,1.80
2023-02-01T06:18:27.177Z,1.83
2023-02-01T06:20:55.777Z,1.45
2023-02-01T06:23:25.060Z,1.92
2023-02-01T06:26:01.750Z,1.77
2023-02-01T06:28:29.808Z,1.60
2023-02-01T06:30:57.149Z,1.52
2023-02-01T06:33:23.988Z,2.33
2023-02-01T06:35:58.289Z,2.10
2023-02-01T06:38:25.546Z,2.30
2023-02-01T06:40:56.686Z,2.10
2023-02-01T06:43:24.448Z,2.38
2023-02-01T06:45:52.045Z,2.38
2023-02-01T06:48:19.394Z,1.95
2023-02-01T06:50:46.640Z,2.28
2023-02-01T06:53:13.424Z,2.03
2023-02-01T06:55:40.175Z,2.67
2023-02-01T06:58:06.896Z,2.35
2023-02-01T07:00:33.801Z,2.42
2023-02-01T07:03:01.079Z,1.90
2023-02-01T07:05:27.939Z,2.13
2023-02-01T07:07:54.711Z,2.47
2023-02-01T07:10:21.909Z,2.25
2023-02-01T07:12:48.886Z,2.05
2023-02-01T07:15:15.878Z,2.33
2023-02-01T07:17:42.717Z,2.13
2023-02-01T07:20:10.038Z,2.38
2023-02-01T07:22:36.825Z,2.00
2023-02-01T07:25:05.749Z,2.00
2023-02-01T07:27:35.604Z,1.77
2023-02-01T07:30:03.301Z,1.98
2023-02-01T07:32:30.914Z,2.08
2023-02-01T07:34:58.985Z,1.95
2023-02-01T07:37:25.897Z,2.17
2023-02-01T07:39:52.926Z,1.75
2023-02-01T07:42:20.256Z,1.83
2023-02-01T07:44:47.080Z,2.65
2023-02-01T07:47:13.906Z,1.60
2023-02-01T07:49:40.687Z,2.10
2023-02-01T07:52:07.527Z,2.10
2023-02-01T07:54:34.268Z,1.77
2023-02-01T07:57:01.170Z,2.30
2023-02-01T07:59:27.929Z,1.95
2023-02-01T08:01:54.748Z,2.10
2023-02-01T08:04:21.537Z,2.78
2023-02-01T08:06:48.415Z,1.98
2023-02-01T08:09:15.864Z,1.83
2023-02-01T08:11:42.711Z,3.35
2023-02-01T08:14:09.504Z,2.35
2023-02-01T08:16:38.441Z,1.60
2023-02-01T08:19:05.405Z,2.35
2023-02-01T08:21:37.876Z,2.30
2023-02-01T08:24:10.155Z,1.80
2023-02-01T08:26:37.391Z,2.13
2023-02-01T08:29:06.786Z,2.28
2023-02-01T08:31:33.960Z,2.10
2023-02-01T08:34:05.206Z,1.75
2023-02-01T08:36:32.607Z,2.33
2023-02-01T08:38:59.414Z,2.17
2023-02-01T08:41:29.047Z,1.42
2023-02-01T08:43:56.997Z,2.15
2023-02-01T08:46:24.796Z,2.20
2023-02-01T08:48:52.262Z,2.08
2023-02-01T08:51:21.164Z,1.67
2023-02-01T08:53:48.345Z,1.30
2023-02-01T08:56:17.129Z,1.73
2023-02-01T08:58:44.421Z,1.70
2023-02-01T09:01:14.401Z,1.27
2023-02-01T09:03:42.009Z,1.23
2023-02-01T09:06:11.968Z,1.77
2023-02-01T09:08:39.759Z,1.63
2023-02-01T09:11:11.607Z,1.52
2023-02-01T09:13:38.497Z,1.77
2023-02-01T09:16:06.016Z,2.55
2023-02-01T09:18:33.029Z,1.85
2023-02-01T09:20:59.832Z,1.42
2023-02-01T09:23:26.799Z,2.20
2023-02-01T09:25:53.632Z,1.75
2023-02-01T09:28:20.994Z,1.13
2023-02-01T09:30:47.932Z,1.52
2023-02-01T09:33:14.920Z,2.13
2023-02-01T09:35:41.694Z,1.48
2023-02-01T09:38:08.568Z,1.70
2023-02-01T09:40:36.518Z,1.67
2023-02-01T09:43:35.407Z,1.58
2023-02-01T09:46:25.550Z,1.30
2023-02-01T09:49:01.958Z,1.58
2023-02-01T09:51:36.477Z,1.63
2023-02-01T09:54:23.057Z,1.75
2023-02-01T09:57:10.552Z,1.85
2023-02-01T09:59:47.249Z,1.65
2023-02-01T10:02:26.833Z,1.55
2023-02-01T10:04:58.650Z,1.40
2023-02-01T10:07:37.475Z,1.38
2023-02-01T10:10:13.664Z,1.20
2023-02-01T10:13:04.760Z,1.25
2023-02-01T10:15:46.794Z,1.60
2023-02-01T10:18:33.328Z,1.25
2023-02-01T10:21:20.609Z,1.35
2023-02-01T10:23:50.625Z,2.03
2023-02-01T10:26:22.777Z,1.55
2023-02-01T10:28:57.235Z,2.10
2023-02-01T10:31:27.547Z,1.75
2023-02-01T10:33:59.107Z,1.50
2023-02-01T10:37:00.882Z,1.95
2023-02-01T10:39:28.086Z,2.15
2023-02-01T10:41:57.183Z,1.58
2023-02-01T10:44:28.679Z,1.70
2023-02-01T10:46:55.947Z,1.98
2023-02-01T10:50:04.565Z,1.85
2023-02-01T10:52:44.323Z,1.50
2023-02-01T10:55:40.791Z,1.40
2023-02-01T10:58:19.117Z,1.70
2023-02-01T11:01:04.476Z,1.50
2023-02-01T11:03:33.512Z,1.65
2023-02-01T11:06:01.678Z,1.60
2023-02-01T11:08:28.678Z,1.38
2023-02-01T11:11:06.623Z,1.80
2023-02-01T11:13:38.075Z,2.03
2023-02-01T11:16:06.260Z,2.78
2023-02-01T11:18:38.293Z,2.38
2023-02-01T11:21:07.504Z,1.50
2023-02-01T11:23:40.632Z,2.33
2023-02-01T11:26:30.924Z,3.08
2023-02-01T11:29:11.241Z,2.92
2023-02-01T11:31:39.236Z,2.65
2023-02-01T11:34:22.179Z,1.98
2023-02-01T11:36:50.887Z,2.13
2023-02-01T11:39:32.607Z,2.90
2023-02-01T11:42:14.922Z,4.30
2023-02-01T11:44:44.064Z,4.10
2023-02-01T11:47:38.033Z,3.90
2023-02-01T11:50:16.421Z,2.97
2023-02-01T11:52:56.901Z,1.52
2023-02-01T11:55:35.849Z,1.65
2023-02-01T11:58:14.521Z,1.88
2023-02-01T12:01:05.503Z,1.40
2023-02-01T12:03:44.228Z,1.73
2023-02-01T12:06:20.823Z,1.80
2023-02-01T12:08:59.766Z,1.90
2023-02-01T12:11:46.386Z,1.85
2023-02-01T12:14:29.983Z,1.83
2023-02-01T12:17:34.009Z,2.20
2023-02-01T12:20:51.990Z,2.47
2023-02-01T12:23:37.143Z,1.50
2023-02-01T12:26:45.472Z,2.03
2023-02-01T12:29:31.031Z,1.40
2023-02-01T12:32:07.235Z,1.80
2023-02-01T12:34:55.652Z,1.33
2023-02-01T12:37:34.538Z,1.77
2023-02-01T12:40:35.363Z,1.80
2023-02-01T12:43:26.295Z,1.98
2023-02-01T12:45:59.380Z,1.77
2023-02-01T12:48:38.383Z,1.58
2023-02-01T12:51:14.604Z,1.63
2023-02-01T12:53:48.127Z,1.70
2023-02-01T12:56:23.482Z,1.60
2023-02-01T12:58:52.559Z,1.40
2023-02-01T13:01:26.985Z,1.90
2023-02-01T13:03:53.876Z,1.80
2023-02-01T13:06:27.704Z,1.70
2023-02-01T13:09:21.724Z,1.42
2023-02-01T13:11:49.943Z,1.60
2023-02-01T13:14:19.654Z,1.27
2023-02-01T13:16:50.366Z,2.38
2023-02-01T13:19:57.064Z,1.33
2023-02-01T13:22:32.667Z,1.30
2023-02-01T13:25:03.730Z,1.38
2023-02-01T13:27:33.009Z,1.65
2023-02-01T13:30:11.990Z,1.67
2023-02-01T13:32:54.191Z,1.75
2023-02-01T13:36:05.401Z,1.60
2023-02-01T13:38:43.758Z,1.50
2023-02-01T13:41:19.516Z,2.35
2023-02-01T13:43:49.912Z,1.50
2023-02-01T13:46:18.126Z,1.40
2023-02-01T13:48:59.025Z,1.65
2023-02-01T13:51:59.099Z,1.50
2023-02-01T13:54:40.236Z,2.25
2023-02-01T13:57:36.612Z,1.40
2023-02-01T14:00:28.079Z,1.40
2023-02-01T14:03:19.563Z,1.60
2023-02-01T14:05:47.901Z,1.17
2023-02-01T14:08:22.926Z,1.73
2023-02-01T14:10:56.882Z,1.38
2023-02-01T14:13:41.294Z,1.15
2023-02-01T14:16:15.321Z,1.08
2023-02-01T14:18:42.221Z,1.70
2023-02-01T14:21:31.971Z,1.40
2023-02-01T14:24:02.238Z,1.77
2023-02-01T14:26:51.215Z,1.15
2023-02-01T14:29:21.712Z,1.15
2023-02-01T14:32:20.675Z,1.65
2023-02-01T14:34:47.823Z,1.10
2023-02-01T14:37:17.579Z,1.40
2023-02-01T14:39:47.606Z,1.80
2023-02-01T14:42:22.900Z,1.60
2023-02-01T14:44:58.688Z,1.50
2023-02-01T14:47:30.696Z,1.17
2023-02-01T14:49:59.739Z,1.23
2023-02-01T14:52:43.409Z,1.65
2023-02-01T14:55:40.318Z,1.65
2023-02-01T14:58:49.872Z,1.60
2023-02-01T15:01:35.558Z,1.42
2023-02-01T15:04:19.554Z,1.10
2023-02-01T15:06:59.487Z,1.33
2023-02-01T15:09:30.042Z,2.45
2023-02-01T15:12:03.482Z,1.35
2023-02-01T15:14:36.497Z,1.48
2023-02-01T15:17:04.322Z,1.20
2023-02-01T15:19:34.096Z,1.48
2023-02-01T15:22:01.435Z,1.90
2023-02-01T15:24:30.726Z,1.60
2023-02-01T15:27:05.191Z,1.30
2023-02-01T15:29:34.411Z,1.58
2023-02-01T15:32:02.008Z,1.50
2023-02-01T15:35:01.993Z,1.80
2023-02-01T15:37:29.940Z,1.40
2023-02-01T15:40:20.068Z,1.80
2023-02-01T15:42:58.719Z,1.38
2023-02-01T15:45:31.101Z,1.50
2023-02-01T15:47:59.562Z,1.60
2023-02-01T15:50:28.541Z,1.27
2023-02-01T15:52:58.931Z,1.85
2023-02-01T15:55:34.191Z,1.73
2023-02-01T15:58:01.198Z,1.92
2023-02-01T16:00:47.175Z,1.98
2023-02-01T16:03:28.472Z,1.63
2023-02-01T16:05:58.119Z,1.60
2023-02-01T16:08:27.302Z,1.80
2023-02-01T16:11:00.838Z,1.70
2023-02-01T16:13:27.603Z,2.03
2023-02-01T16:15:54.744Z,1.75
2023-02-01T16:18:21.521Z,1.80
2023-02-01T16:20:49.725Z,1.80
2023-02-01T16:23:16.552Z,1.63
2023-02-01T16:25:43.900Z,2.20
2023-02-01T16:28:10.703Z,1.83
2023-02-01T16:30:37.893Z,1.80
2023-02-01T16:33:06.618Z,1.83
2023-02-01T16:35:38.907Z,1.67
2023-02-01T16:38:19.437Z,2.30
2023-02-01T16:40:47.346Z,2.00
2023-02-01T16:43:22.646Z,1.60
2023-02-01T16:45:51.609Z,1.55
2023-02-01T16:48:27.426Z,1.80
2023-02-01T16:50:56.552Z,2.00
2023-02-01T16:53:24.899Z,2.42
2023-02-01T16:55:53.299Z,1.80
2023-02-01T16:58:21.679Z,1.80
2023-02-01T17:00:49.254Z,1.85
2023-02-01T17:03:17.682Z,2.78
2023-02-01T17:05:51.826Z,1.60
2023-02-01T17:08:26.373Z,1.60
2023-02-01T17:10:53.103Z,1.67
2023-02-01T17:13:19.850Z,1.40
2023-02-01T17:16:12.161Z,1.52
2023-02-01T17:18:40.003Z,1.90
2023-02-01T17:21:07.714Z,2.22
2023-02-01T17:23:34.716Z,1.50
2023-02-01T17:26:03.296Z,1.63
2023-02-01T17:28:30.502Z,2.00
2023-02-01T17:30:57.593Z,1.50
2023-02-01T17:33:36.485Z,1.90
2023-02-01T17:36:06.161Z,2.25
2023-02-01T17:38:34.838Z,1.88
2023-02-01T17:41:02.377Z,1.65
2023-02-01T17:43:29.748Z,2.25
2023-02-01T17:46:06.792Z,2.00
2023-02-01T17:48:33.759Z,1.77
2023-02-01T17:51:01.505Z,2.08
2023-02-01T17:53:29.748Z,2.10
2023-02-01T17:55:58.506Z,2.00
2023-02-01T17:58:26.690Z,1.63
2023-02-01T18:00:54.612Z,1.73
2023-02-01T18:03:31.764Z,1.83
2023-02-01T18:05:59.770Z,2.53
2023-02-01T18:08:29.222Z,1.95
2023-02-01T18:11:01.499Z,1.63
2023-02-01T18:13:29.544Z,1.48
2023-02-01T18:15:56.998Z,2.03
2023-02-01T18:18:23.803Z,2.63
2023-02-01T18:20:50.737Z,1.65
2023-02-01T18:23:21.156Z,2.28
2023-02-01T18:25:49.003Z,2.17
2023-02-01T18:28:16.669Z,2.17
2023-02-01T18:30:48.253Z,1.80
2023-02-01T18:33:18.122Z,2.65
2023-02-01T18:35:44.888Z,1.50
2023-02-01T18:38:11.762Z,1.83
2023-02-01T18:40:59.007Z,2.58
2023-02-01T18:43:26.704Z,2.10
2023-02-01T18:45:54.724Z,2.00
2023-02-01T18:48:22.389Z,2.60
2023-02-01T18:50:52.168Z,2.28
2023-02-01T18:53:21.202Z,2.25
2023-02-01T18:55:48.195Z,2.17
2023-02-01T18:58:16.227Z,1.88
2023-02-01T19:00:44.179Z,2.15
2023-02-01T19:03:15.447Z,2.13
2023-02-01T19:05:42.600Z,2.22
2023-02-01T19:08:09.613Z,1.95
2023-02-01T19:10:38.734Z,2.15
2023-02-01T19:13:05.745Z,1.70
2023-02-01T19:15:34.843Z,1.88
2023-02-01T19:18:01.923Z,2.00
2023-02-01T19:20:28.739Z,1.77
2023-02-01T19:22:55.609Z,1.67
2023-02-01T19:25:27.713Z,1.70
2023-02-01T19:27:54.633Z,2.08
2023-02-01T19:30:23.013Z,1.83
2023-02-01T19:32:50.644Z,1.83
2023-02-01T19:35:20.719Z,2.05
2023-02-01T19:37:48.869Z,2.17
2023-02-01T19:40:18.895Z,1.42
2023-02-01T19:42:46.622Z,1.80
2023-02-01T19:45:13.990Z,2.30
2023-02-01T19:47:41.127Z,1.52
2023-02-01T19:50:09.362Z,2.00
2023-02-01T19:52:36.924Z,1.60
2023-02-01T19:55:05.050Z,1.75
2023-02-01T19:57:32.006Z,1.67
2023-02-01T19:59:58.801Z,1.92
2023-02-01T20:02:27.979Z,2.00
2023-02-01T20:04:54.867Z,1.50
2023-02-01T20:07:22.007Z,1.80
2023-02-01T20:09:49.027Z,1.48
2023-02-01T20:12:28.137Z,2.10
2023-02-01T20:14:55.771Z,1.25
2023-02-01T20:17:22.884Z,2.25
2023-02-01T20:19:49.660Z,1.83
2023-02-01T20:22:16.904Z,1.40
2023-02-01T20:24:43.862Z,1.60
2023-02-01T20:27:13.061Z,1.83
2023-02-01T20:29:41.617Z,1.40
2023-02-01T20:32:09.219Z,2.08
2023-02-01T20:34:36.044Z,1.58
2023-02-01T20:37:03.065Z,1.50
2023-02-01T20:39:30.420Z,1.70
2023-02-01T20:41:57.218Z,1.17
2023-02-01T20:44:24.027Z,2.15
2023-02-01T20:46:51.035Z,1.95
2023-02-01T20:49:18.091Z,1.85
2023-02-01T20:51:44.810Z,1.63
2023-02-01T20:54:11.700Z,1.95
2023-02-01T20:56:39.765Z,1.48
2023-02-01T20:59:10.776Z,1.90
2023-02-01T21:01:42.422Z,1.65
2023-02-01T21:04:09.730Z,2.53
2023-02-01T21:06:37.343Z,2.67
2023-02-01T21:09:04.140Z,1.52
2023-02-01T21:11:31.006Z,1.73
2023-02-01T21:13:58.342Z,1.95
2023-02-01T21:16:26.781Z,1.77
2023-02-01T21:18:53.917Z,1.60
2023-02-01T21:21:20.744Z,1.60
2023-02-01T21:23:49.422Z,1.60
2023-02-01T21:26:19.349Z,2.17
2023-02-01T21:28:46.232Z,1.80
2023-02-01T21:31:15.231Z,1.80
2023-02-01T21:33:42.060Z,1.70
2023-02-01T21:36:09.078Z,1.63
2023-02-01T21:38:35.950Z,1.40
2023-02-01T21:41:22.356Z,1.50
2023-02-01T21:43:49.141Z,1.38
2023-02-01T21:46:18.097Z,1.40
2023-02-01T21:49:04.924Z,2.22
2023-02-01T21:51:32.157Z,1.30
2023-02-01T21:53:59.038Z,1.80
2023-02-01T21:56:25.818Z,1.88
2023-02-01T21:58:52.785Z,1.58
2023-02-01T22:01:19.623Z,1.30
2023-02-01T22:03:46.528Z,1.50
2023-02-01T22:06:24.056Z,1.48
2023-02-01T22:08:50.908Z,1.48
2023-02-01T22:11:18.049Z,1.35
2023-02-01T22:13:44.928Z,1.02
2023-02-01T22:16:13.452Z,1.60
2023-02-01T22:18:40.296Z,1.38
2023-02-01T22:21:07.009Z,1.70
2023-02-01T22:23:33.786Z,1.83
2023-02-01T22:26:01.899Z,1.58
2023-02-01T22:28:32.003Z,1.20
2023-02-01T22:31:02.580Z,1.58
2023-02-01T22:33:29.665Z,1.30
2023-02-01T22:35:57.074Z,1.80
2023-02-01T22:38:24.274Z,1.63
2023-02-01T22:41:09.565Z,1.40
2023-02-01T22:43:36.688Z,1.60
2023-02-01T22:46:07.613Z,1.50
2023-02-01T22:48:39.235Z,1.60
2023-02-01T22:51:07.150Z,0.95
2023-02-01T22:53:34.438Z,2.28
2023-02-01T22:56:05.787Z,1.70
2023-02-01T22:58:33.016Z,1.50
2023-02-01T23:01:08.092Z,1.60
2023-02-01T23:03:36.002Z,2.67
2023-02-01T23:06:03.946Z,1.48
2023-02-01T23:08:31.479Z,1.75
2023-02-01T23:11:04.636Z,1.40
2023-02-01T23:13:32.552Z,1.83
2023-02-01T23:15:59.576Z,1.55
2023-02-01T23:18:28.080Z,1.23
2023-02-01T23:20:54.880Z,1.77
2023-02-01T23:23:21.786Z,2.15
2023-02-01T23:25:51.930Z,1.75
2023-02-01T23:28:18.760Z,1.45
2023-02-01T23:30:45.534Z,1.80
2023-02-01T23:33:12.349Z,1.60
2023-02-01T23:35:39.145Z,1.70
2023-02-01T23:38:06.331Z,1.33
2023-02-01T23:40:33.055Z,2.92
2023-02-01T23:43:18.253Z,2.00
2023-02-01T23:45:45.007Z,1.73
2023-02-01T23:48:11.758Z,1.40
2023-02-01T23:50:38.562Z,1.98
2023-02-01T23:53:05.290Z,1.60
2023-02-01T23:55:32.041Z,1.40
2023-02-01T23:57:58.755Z,1.80
